Terminal Aerodrome Forecast
Issued by NWS

Home | Current Version | Previous Version | Text Only | Print | Product List | Glossary On
Versions: 1 2 3 4 5 6 7 8 9 10 11 12 13 14 15 16 17
000
FTUS43 KFGF 240500
TAFDVL
TAF
KDVL 240522Z 2406/2506 14015KT P6SM OVC006
      TEMPO 2406/2410 5SM BR OVC010
     FM241000 14010KT P6SM BKN025
     FM241500 22010KT P6SM SCT025
      AMD LTD TO CLD VIS AND WIND=

USA.gov is the U.S. government's official web portal to all federal, state and local government web resources and services.